CheckWX is a tool to help pilots better visualize weather data.  It is not intended as a substitute for an official pre-flight weather briefing.

08:21:16 UTC

KCMA TAF
Camarillo Airport
Camarillo, California, USA
KCMA 051135Z 0512/0612 VRB03KT P6SM BKN017 OVC022 FM051800 20008KT P6SM VCSH SCT025 OVC040 FM052200 21012G20KT P6SM -RA BKN025 OVC040 FM060200 22015G25KT 4SM -RA BR SCT015 OVC025 FM060500 17012G20KT 2SM RA BR BKN008 OVC015 FM061000 23010KT 4SM -RA BR BKN015 OVC025

Apr-5@
12:00 UTC

Apr-5 @ 12:00 UTC

Apr-5@
18:00 UTC

Apr-5 @ 18:00 UTC

TAF KCMA 051135Z 0512/0612 VRB03KT P6SM BKN017 OVC022

Expired

Wind
  • Variable at 3 KTS
Cloud Levels
  • Broken at 1,700' AGL
  • Overcast at 2,200' AGL

Apr-5@
18:00 UTC

Apr-5 @ 18:00 UTC

Apr-5@
22:00 UTC

Apr-5 @ 22:00 UTC

FM051800 20008KT P6SM VCSH SCT025 OVC040

Expired

Wind
  • 200° at 8 KTS
Conditions
Area Showers
Cloud Levels
  • Scattered at 2,500' AGL
  • Overcast at 4,000' AGL

Apr-5@
22:00 UTC

Apr-5 @ 22:00 UTC

Apr-6@
02:00 UTC

Apr-6 @ 02:00 UTC

FM052200 21012G20KT P6SM -RA BKN025 OVC040

Expired

Wind
  • 210° at 12 KTS
  • {Gusting to 20 KTS
Conditions
Light Rain
Cloud Levels
  • Broken at 2,500' AGL
  • Overcast at 4,000' AGL

Apr-6@
02:00 UTC

Apr-6 @ 02:00 UTC

Apr-6@
05:00 UTC

Apr-6 @ 05:00 UTC

FM060200 22015G25KT 4SM -RA BR SCT015 OVC025

Expired

Wind
  • 220° at 15 KTS
  • {Gusting to 25 KTS
Conditions
Light Rain, Mist
Cloud Levels
  • Scattered at 1,500' AGL
  • Overcast at 2,500' AGL

Apr-6@
05:00 UTC

Apr-6 @ 05:00 UTC

Apr-6@
10:00 UTC

Apr-6 @ 10:00 UTC

FM060500 17012G20KT 2SM RA BR BKN008 OVC015

From

From Standard forecast or significant change

Wind
  • 170° at 12 KTS
  • {Gusting to 20 KTS
Conditions
Rain, Mist
Cloud Levels
  • Broken at 800' AGL
  • Overcast at 1,500' AGL

Apr-6@
10:00 UTC

Apr-6 @ 10:00 UTC

Apr-6@
12:00 UTC

Apr-6 @ 12:00 UTC

FM061000 23010KT 4SM -RA BR BKN015 OVC025

From

From Standard forecast or significant change

Wind
  • 230° at 10 KTS
Conditions
Light Rain, Mist
Cloud Levels
  • Broken at 1,500' AGL
  • Overcast at 2,500' AGL